sensor_id;sensor_type;location;lat;lon;timestamp;pressure;altitude;pressure_sealevel;temperature;humidity
33185;BME280;19550;42.872;25.494;2022-07-19T00:00:09;97106.66;;;13.58;100.00
33185;BME280;19550;42.872;25.494;2022-07-19T00:02:37;97103.88;;;13.49;100.00
33185;BME280;19550;42.872;25.494;2022-07-19T00:05:05;97097.75;;;13.39;100.00
33185;BME280;19550;42.872;25.494;2022-07-19T00:07:33;97100.22;;;13.40;100.00
33185;BME280;19550;42.872;25.494;2022-07-19T00:10:00;97104.78;;;13.36;100.00
33185;BME280;19550;42.872;25.494;2022-07-19T00:12:28;97098.38;;;13.27;100.00
33185;BME280;19550;42.872;25.494;2022-07-19T00:14:55;97102.59;;;13.25;100.00
33185;BME280;19550;42.872;25.494;2022-07-19T00:17:22;97095.69;;;13.13;100.00
33185;BME280;19550;42.872;25.494;2022-07-19T00:19:49;97100.72;;;13.11;100.00
33185;BME280;19550;42.872;25.494;2022-07-19T00:22:16;97092.19;;;13.08;100.00
33185;BME280;19550;42.872;25.494;2022-07-19T00:24:43;97084.66;;;13.08;100.00
33185;BME280;19550;42.872;25.494;2022-07-19T00:27:10;97086.13;;;13.06;100.00
33185;BME280;19550;42.872;25.494;2022-07-19T00:29:39;97082.91;;;13.12;100.00
33185;BME280;19550;42.872;25.494;2022-07-19T00:32:06;97086.50;;;13.13;100.00
33185;BME280;19550;42.872;25.494;2022-07-19T00:34:33;97085.44;;;13.00;100.00
33185;BME280;19550;42.872;25.494;2022-07-19T00:37:00;97084.75;;;12.95;100.00
33185;BME280;19550;42.872;25.494;2022-07-19T00:39:27;97080.28;;;12.85;100.00
33185;BME280;19550;42.872;25.494;2022-07-19T00:41:54;97079.50;;;12.93;100.00
33185;BME280;19550;42.872;25.494;2022-07-19T00:44:22;97080.63;;;12.92;100.00
33185;BME280;19550;42.872;25.494;2022-07-19T00:46:50;97077.22;;;12.95;100.00
33185;BME280;19550;42.872;25.494;2022-07-19T00:49:18;97081.66;;;12.96;100.00
33185;BME280;19550;42.872;25.494;2022-07-19T00:51:45;97083.41;;;12.92;100.00
33185;BME280;19550;42.872;25.494;2022-07-19T00:54:13;97073.72;;;12.81;100.00
33185;BME280;19550;42.872;25.494;2022-07-19T00:56:41;97073.97;;;12.71;100.00
33185;BME280;19550;42.872;25.494;2022-07-19T00:59:09;97078.16;;;12.60;100.00
33185;BME280;19550;42.872;25.494;2022-07-19T01:01:37;97076.88;;;12.66;100.00
33185;BME280;19550;42.872;25.494;2022-07-19T01:04:06;97071.31;;;12.66;100.00
33185;BME280;19550;42.872;25.494;2022-07-19T01:06:33;97071.97;;;12.63;100.00
33185;BME280;19550;42.872;25.494;2022-07-19T01:09:01;97071.91;;;12.54;100.00
33185;BME280;19550;42.872;25.494;2022-07-19T01:11:28;97078.66;;;12.40;100.00
33185;BME280;19550;42.872;25.494;2022-07-19T01:13:55;97075.72;;;12.36;100.00
33185;BME280;19550;42.872;25.494;2022-07-19T01:16:22;97071.75;;;12.37;100.00
33185;BME280;19550;42.872;25.494;2022-07-19T01:18:49;97070.16;;;12.36;100.00
33185;BME280;19550;42.872;25.494;2022-07-19T01:21:20;97068.41;;;12.26;100.00
33185;BME280;19550;42.872;25.494;2022-07-19T01:23:47;97071.81;;;12.23;100.00
33185;BME280;19550;42.872;25.494;2022-07-19T01:26:15;97058.06;;;12.18;100.00
33185;BME280;19550;42.872;25.494;2022-07-19T01:28:42;97067.91;;;12.24;100.00
33185;BME280;19550;42.872;25.494;2022-07-19T01:31:09;97072.78;;;12.19;100.00
33185;BME280;19550;42.872;25.494;2022-07-19T01:33:40;97068.59;;;12.30;100.00
33185;BME280;19550;42.872;25.494;2022-07-19T01:36:08;97069.94;;;12.32;100.00
33185;BME280;19550;42.872;25.494;2022-07-19T01:38:37;97068.72;;;12.25;100.00
33185;BME280;19550;42.872;25.494;2022-07-19T01:41:05;97064.25;;;12.15;100.00
33185;BME280;19550;42.872;25.494;2022-07-19T01:43:32;97071.13;;;12.18;100.00
33185;BME280;19550;42.872;25.494;2022-07-19T01:45:59;97074.13;;;12.21;100.00
33185;BME280;19550;42.872;25.494;2022-07-19T01:48:26;97072.16;;;12.22;100.00
33185;BME280;19550;42.872;25.494;2022-07-19T01:50:53;97073.81;;;12.23;100.00
33185;BME280;19550;42.872;25.494;2022-07-19T01:53:20;97074.25;;;12.16;100.00
33185;BME280;19550;42.872;25.494;2022-07-19T01:55:49;97071.16;;;12.04;100.00
33185;BME280;19550;42.872;25.494;2022-07-19T01:58:17;97068.59;;;12.08;100.00
33185;BME280;19550;42.872;25.494;2022-07-19T02:00:44;97067.13;;;12.10;100.00
33185;BME280;19550;42.872;25.494;2022-07-19T02:03:11;97073.47;;;12.02;100.00
33185;BME280;19550;42.872;25.494;2022-07-19T02:05:38;97072.44;;;11.98;100.00
33185;BME280;19550;42.872;25.494;2022-07-19T02:08:06;97074.50;;;11.92;100.00
33185;BME280;19550;42.872;25.494;2022-07-19T02:10:34;97075.44;;;11.88;100.00
33185;BME280;19550;42.872;25.494;2022-07-19T02:13:02;97071.63;;;11.84;100.00
33185;BME280;19550;42.872;25.494;2022-07-19T02:15:29;97068.94;;;11.92;100.00
33185;BME280;19550;42.872;25.494;2022-07-19T02:17:56;97073.16;;;11.90;100.00
33185;BME280;19550;42.872;25.494;2022-07-19T02:20:24;97075.25;;;11.84;100.00
33185;BME280;19550;42.872;25.494;2022-07-19T02:22:51;97068.53;;;11.72;100.00
33185;BME280;19550;42.872;25.494;2022-07-19T02:25:18;97075.56;;;11.83;100.00
33185;BME280;19550;42.872;25.494;2022-07-19T02:27:45;97074.53;;;11.79;100.00
33185;BME280;19550;42.872;25.494;2022-07-19T02:30:13;97078.25;;;11.74;100.00
33185;BME280;19550;42.872;25.494;2022-07-19T02:32:43;97069.50;;;11.67;100.00
33185;BME280;19550;42.872;25.494;2022-07-19T02:35:11;97083.59;;;11.57;100.00
33185;BME280;19550;42.872;25.494;2022-07-19T02:37:39;97070.34;;;11.40;100.00
33185;BME280;19550;42.872;25.494;2022-07-19T02:40:07;97075.59;;;11.55;100.00
33185;BME280;19550;42.872;25.494;2022-07-19T02:42:34;97073.28;;;11.57;100.00
33185;BME280;19550;42.872;25.494;2022-07-19T02:45:01;97090.06;;;11.52;100.00
33185;BME280;19550;42.872;25.494;2022-07-19T02:47:30;97083.38;;;11.53;100.00
33185;BME280;19550;42.872;25.494;2022-07-19T02:49:57;97085.25;;;11.44;100.00
33185;BME280;19550;42.872;25.494;2022-07-19T02:52:24;97083.81;;;11.33;100.00
33185;BME280;19550;42.872;25.494;2022-07-19T02:54:51;97087.72;;;11.32;100.00
33185;BME280;19550;42.872;25.494;2022-07-19T02:57:18;97084.84;;;11.24;100.00
33185;BME280;19550;42.872;25.494;2022-07-19T02:59:45;97081.75;;;11.25;100.00
33185;BME280;19550;42.872;25.494;2022-07-19T03:02:12;97089.38;;;11.33;100.00
33185;BME280;19550;42.872;25.494;2022-07-19T03:04:40;97086.88;;;11.32;100.00
33185;BME280;19550;42.872;25.494;2022-07-19T03:07:07;97091.31;;;11.33;100.00
33185;BME280;19550;42.872;25.494;2022-07-19T03:09:34;97086.00;;;11.36;100.00
33185;BME280;19550;42.872;25.494;2022-07-19T03:12:01;97084.13;;;11.32;100.00
33185;BME280;19550;42.872;25.494;2022-07-19T03:14:28;97086.88;;;11.32;100.00
33185;BME280;19550;42.872;25.494;2022-07-19T03:16:55;97089.38;;;11.47;100.00
33185;BME280;19550;42.872;25.494;2022-07-19T03:19:23;97092.66;;;11.49;100.00
33185;BME280;19550;42.872;25.494;2022-07-19T03:21:53;97087.72;;;11.46;100.00
33185;BME280;19550;42.872;25.494;2022-07-19T03:24:20;97088.44;;;11.38;100.00
33185;BME280;19550;42.872;25.494;2022-07-19T03:26:48;97087.41;;;11.47;100.00
33185;BME280;19550;42.872;25.494;2022-07-19T03:29:15;97091.19;;;11.51;100.00
33185;BME280;19550;42.872;25.494;2022-07-19T03:31:42;97096.34;;;11.58;100.00
33185;BME280;19550;42.872;25.494;2022-07-19T03:34:09;97086.97;;;11.68;100.00
33185;BME280;19550;42.872;25.494;2022-07-19T03:36:36;97086.59;;;11.74;100.00
33185;BME280;19550;42.872;25.494;2022-07-19T03:39:04;97081.91;;;11.83;100.00
33185;BME280;19550;42.872;25.494;2022-07-19T03:41:32;97090.34;;;11.92;100.00
33185;BME280;19550;42.872;25.494;2022-07-19T03:43:59;97091.88;;;11.98;100.00
33185;BME280;19550;42.872;25.494;2022-07-19T03:46:26;97094.31;;;12.13;100.00
33185;BME280;19550;42.872;25.494;2022-07-19T03:48:54;97101.97;;;12.30;100.00
33185;BME280;19550;42.872;25.494;2022-07-19T03:51:21;97100.91;;;12.40;100.00
33185;BME280;19550;42.872;25.494;2022-07-19T03:53:48;97095.91;;;12.50;100.00
33185;BME280;19550;42.872;25.494;2022-07-19T03:56:16;97096.56;;;12.69;100.00
33185;BME280;19550;42.872;25.494;2022-07-19T03:58:46;97104.91;;;12.69;100.00
33185;BME280;19550;42.872;25.494;2022-07-19T04:01:13;97099.69;;;12.77;100.00
33185;BME280;19550;42.872;25.494;2022-07-19T04:03:41;97103.13;;;12.73;100.00
33185;BME280;19550;42.872;25.494;2022-07-19T04:06:09;97092.09;;;12.91;100.00
33185;BME280;19550;42.872;25.494;2022-07-19T04:08:37;97106.06;;;12.99;100.00
33185;BME280;19550;42.872;25.494;2022-07-19T04:11:05;97107.75;;;13.09;100.00
33185;BME280;19550;42.872;25.494;2022-07-19T04:13:34;97109.28;;;13.15;99.71
33185;BME280;19550;42.872;25.494;2022-07-19T04:16:02;97108.22;;;13.11;99.70
33185;BME280;19550;42.872;25.494;2022-07-19T04:18:31;97110.34;;;13.28;98.49
33185;BME280;19550;42.872;25.494;2022-07-19T04:20:58;97110.94;;;13.16;99.28
33185;BME280;19550;42.872;25.494;2022-07-19T04:23:25;97107.56;;;13.36;99.32
33185;BME280;19550;42.872;25.494;2022-07-19T04:25:52;97100.75;;;13.51;98.36
33185;BME280;19550;42.872;25.494;2022-07-19T04:28:19;97098.66;;;13.65;98.21
33185;BME280;19550;42.872;25.494;2022-07-19T04:30:48;97109.84;;;13.74;97.62
33185;BME280;19550;42.872;25.494;2022-07-19T04:33:16;97112.16;;;13.80;97.27
33185;BME280;19550;42.872;25.494;2022-07-19T04:35:43;97101.38;;;14.05;96.01
33185;BME280;19550;42.872;25.494;2022-07-19T04:38:11;97110.59;;;14.22;94.86
33185;BME280;19550;42.872;25.494;2022-07-19T04:40:38;97102.56;;;14.38;94.19
33185;BME280;19550;42.872;25.494;2022-07-19T04:43:05;97109.13;;;14.51;92.77
33185;BME280;19550;42.872;25.494;2022-07-19T04:45:32;97107.34;;;14.55;92.22
33185;BME280;19550;42.872;25.494;2022-07-19T04:48:01;97104.53;;;14.63;92.21
33185;BME280;19550;42.872;25.494;2022-07-19T04:50:28;97108.16;;;14.81;91.86
33185;BME280;19550;42.872;25.494;2022-07-19T04:52:55;97103.84;;;14.92;91.00
33185;BME280;19550;42.872;25.494;2022-07-19T04:55:22;97098.88;;;15.15;90.66
33185;BME280;19550;42.872;25.494;2022-07-19T04:57:49;97099.94;;;15.31;89.67
33185;BME280;19550;42.872;25.494;2022-07-19T05:00:16;97099.09;;;15.48;89.40
33185;BME280;19550;42.872;25.494;2022-07-19T05:02:43;97113.19;;;15.60;88.50
33185;BME280;19550;42.872;25.494;2022-07-19T05:05:12;97104.47;;;15.62;88.52
33185;BME280;19550;42.872;25.494;2022-07-19T05:07:39;97111.22;;;15.90;87.55
33185;BME280;19550;42.872;25.494;2022-07-19T05:10:07;97103.72;;;16.03;87.39
33185;BME280;19550;42.872;25.494;2022-07-19T05:12:35;97114.13;;;16.23;86.19
33185;BME280;19550;42.872;25.494;2022-07-19T05:15:02;97104.25;;;16.25;84.90
33185;BME280;19550;42.872;25.494;2022-07-19T05:17:29;97104.38;;;16.50;84.98
33185;BME280;19550;42.872;25.494;2022-07-19T05:19:56;97103.72;;;16.74;84.15
33185;BME280;19550;42.872;25.494;2022-07-19T05:22:25;97098.69;;;17.00;83.49
33185;BME280;19550;42.872;25.494;2022-07-19T05:24:53;97101.44;;;17.21;82.51
33185;BME280;19550;42.872;25.494;2022-07-19T05:27:21;97110.56;;;17.30;80.86
33185;BME280;19550;42.872;25.494;2022-07-19T05:29:49;97102.22;;;17.54;79.88
33185;BME280;19550;42.872;25.494;2022-07-19T05:32:16;97102.50;;;17.73;78.87
33185;BME280;19550;42.872;25.494;2022-07-19T05:34:43;97097.69;;;17.86;79.52
33185;BME280;19550;42.872;25.494;2022-07-19T05:37:10;97101.53;;;18.06;78.03
33185;BME280;19550;42.872;25.494;2022-07-19T05:39:38;97104.47;;;18.21;77.76
33185;BME280;19550;42.872;25.494;2022-07-19T05:42:05;97101.72;;;18.37;77.14
33185;BME280;19550;42.872;25.494;2022-07-19T05:44:32;97095.50;;;18.56;76.41
33185;BME280;19550;42.872;25.494;2022-07-19T05:46:59;97098.38;;;18.72;76.14
33185;BME280;19550;42.872;25.494;2022-07-19T05:49:26;97103.56;;;18.97;75.38
33185;BME280;19550;42.872;25.494;2022-07-19T05:51:53;97101.69;;;19.17;74.48
33185;BME280;19550;42.872;25.494;2022-07-19T05:54:20;97103.31;;;19.46;73.87
33185;BME280;19550;42.872;25.494;2022-07-19T05:56:49;97103.31;;;19.62;72.41
33185;BME280;19550;42.872;25.494;2022-07-19T05:59:16;97100.34;;;19.86;71.97
33185;BME280;19550;42.872;25.494;2022-07-19T06:01:46;97100.97;;;19.79;71.07
33185;BME280;19550;42.872;25.494;2022-07-19T06:04:13;97089.63;;;20.07;71.12
33185;BME280;19550;42.872;25.494;2022-07-19T06:06:40;97098.31;;;20.34;70.45
33185;BME280;19550;42.872;25.494;2022-07-19T06:09:07;97102.81;;;20.54;69.63
33185;BME280;19550;42.872;25.494;2022-07-19T06:11:38;97091.59;;;20.77;69.35
33185;BME280;19550;42.872;25.494;2022-07-19T06:14:06;97100.59;;;20.82;68.43
33185;BME280;19550;42.872;25.494;2022-07-19T06:16:35;97090.94;;;21.02;67.92
33185;BME280;19550;42.872;25.494;2022-07-19T06:19:03;97089.72;;;21.19;66.36
33185;BME280;19550;42.872;25.494;2022-07-19T06:21:30;97092.13;;;21.40;67.17
33185;BME280;19550;42.872;25.494;2022-07-19T06:23:57;97092.94;;;21.63;66.85
33185;BME280;19550;42.872;25.494;2022-07-19T06:26:25;97086.03;;;21.84;65.09
33185;BME280;19550;42.872;25.494;2022-07-19T06:28:52;97086.22;;;21.94;64.47
33185;BME280;19550;42.872;25.494;2022-07-19T06:31:20;97087.59;;;22.00;64.15
33185;BME280;19550;42.872;25.494;2022-07-19T06:33:49;97092.31;;;22.19;60.92
33185;BME280;19550;42.872;25.494;2022-07-19T06:36:18;97082.81;;;22.31;60.90
33185;BME280;19550;42.872;25.494;2022-07-19T06:38:45;97090.88;;;22.58;59.54
33185;BME280;19550;42.872;25.494;2022-07-19T06:41:13;97088.13;;;22.92;60.19
33185;BME280;19550;42.872;25.494;2022-07-19T06:43:41;97092.09;;;23.17;59.31
33185;BME280;19550;42.872;25.494;2022-07-19T06:46:08;97083.53;;;23.47;52.10
33185;BME280;19550;42.872;25.494;2022-07-19T06:48:37;97086.50;;;23.58;51.15
33185;BME280;19550;42.872;25.494;2022-07-19T06:51:06;97075.28;;;23.68;48.41
33185;BME280;19550;42.872;25.494;2022-07-19T06:53:33;97089.69;;;23.93;48.48
33185;BME280;19550;42.872;25.494;2022-07-19T06:56:00;97082.50;;;24.10;46.62
33185;BME280;19550;42.872;25.494;2022-07-19T06:58:27;97082.66;;;24.24;46.29
33185;BME280;19550;42.872;25.494;2022-07-19T07:00:55;97083.59;;;24.42;44.35
33185;BME280;19550;42.872;25.494;2022-07-19T07:03:23;97092.22;;;24.60;45.33
33185;BME280;19550;42.872;25.494;2022-07-19T07:05:52;97092.69;;;24.69;41.63
33185;BME280;19550;42.872;25.494;2022-07-19T07:08:19;97095.50;;;24.69;41.07
33185;BME280;19550;42.872;25.494;2022-07-19T07:10:46;97095.59;;;24.83;40.32
33185;BME280;19550;42.872;25.494;2022-07-19T07:13:13;97099.31;;;24.91;38.73
33185;BME280;19550;42.872;25.494;2022-07-19T07:15:40;97101.81;;;25.00;39.33
33185;BME280;19550;42.872;25.494;2022-07-19T07:18:08;97100.25;;;25.13;38.78
33185;BME280;19550;42.872;25.494;2022-07-19T07:20:35;97100.69;;;25.29;38.31
33185;BME280;19550;42.872;25.494;2022-07-19T07:23:03;97105.22;;;25.44;38.38
33185;BME280;19550;42.872;25.494;2022-07-19T07:25:31;97108.03;;;25.41;37.82
33185;BME280;19550;42.872;25.494;2022-07-19T07:27:58;97110.47;;;25.42;36.82
33185;BME280;19550;42.872;25.494;2022-07-19T07:30:25;97109.63;;;25.34;36.67
33185;BME280;19550;42.872;25.494;2022-07-19T07:32:52;97106.34;;;25.18;36.94
33185;BME280;19550;42.872;25.494;2022-07-19T07:35:19;97098.34;;;25.56;38.48
33185;BME280;19550;42.872;25.494;2022-07-19T07:37:46;97107.31;;;25.61;37.79
33185;BME280;19550;42.872;25.494;2022-07-19T07:40:15;97097.19;;;25.82;37.96
33185;BME280;19550;42.872;25.494;2022-07-19T07:42:42;97115.47;;;25.84;37.55
33185;BME280;19550;42.872;25.494;2022-07-19T07:45:12;97104.53;;;25.90;36.99
33185;BME280;19550;42.872;25.494;2022-07-19T07:47:39;97106.56;;;26.21;36.99
33185;BME280;19550;42.872;25.494;2022-07-19T07:50:07;97108.63;;;26.24;36.85
33185;BME280;19550;42.872;25.494;2022-07-19T07:52:34;97107.00;;;26.27;36.93
33185;BME280;19550;42.872;25.494;2022-07-19T07:55:02;97104.56;;;26.29;36.74
33185;BME280;19550;42.872;25.494;2022-07-19T07:57:31;97109.44;;;26.46;36.72
33185;BME280;19550;42.872;25.494;2022-07-19T07:59:58;97111.47;;;26.53;36.58
33185;BME280;19550;42.872;25.494;2022-07-19T08:05:10;97109.41;;;26.60;36.51
33185;BME280;19550;42.872;25.494;2022-07-19T08:07:39;97109.81;;;26.66;36.84
33185;BME280;19550;42.872;25.494;2022-07-19T08:10:08;97102.06;;;26.73;35.75
33185;BME280;19550;42.872;25.494;2022-07-19T08:12:37;97113.47;;;26.63;37.12
33185;BME280;19550;42.872;25.494;2022-07-19T08:15:05;97106.97;;;26.69;36.45
33185;BME280;19550;42.872;25.494;2022-07-19T08:17:32;97110.22;;;26.71;36.76
33185;BME280;19550;42.872;25.494;2022-07-19T08:19:59;97104.91;;;26.80;36.53
33185;BME280;19550;42.872;25.494;2022-07-19T08:22:26;97109.78;;;26.83;36.50
33185;BME280;19550;42.872;25.494;2022-07-19T08:24:54;97106.91;;;26.87;35.59
33185;BME280;19550;42.872;25.494;2022-07-19T08:27:21;97111.00;;;26.89;36.28
33185;BME280;19550;42.872;25.494;2022-07-19T08:29:50;97102.03;;;26.95;36.46
33185;BME280;19550;42.872;25.494;2022-07-19T08:32:17;97107.75;;;26.98;36.66
33185;BME280;19550;42.872;25.494;2022-07-19T08:34:44;97113.41;;;27.05;35.95
33185;BME280;19550;42.872;25.494;2022-07-19T08:37:11;97103.56;;;27.20;36.12
33185;BME280;19550;42.872;25.494;2022-07-19T08:39:38;97107.19;;;27.39;35.61
33185;BME280;19550;42.872;25.494;2022-07-19T08:42:05;97101.94;;;27.30;35.24
33185;BME280;19550;42.872;25.494;2022-07-19T08:44:34;97106.03;;;27.15;35.05
33185;BME280;19550;42.872;25.494;2022-07-19T08:47:07;97111.72;;;27.25;35.07
33185;BME280;19550;42.872;25.494;2022-07-19T08:49:34;97101.16;;;27.19;33.90
33185;BME280;19550;42.872;25.494;2022-07-19T08:52:02;97109.63;;;27.37;34.87
33185;BME280;19550;42.872;25.494;2022-07-19T08:54:29;97108.75;;;27.57;35.31
33185;BME280;19550;42.872;25.494;2022-07-19T08:56:56;97108.75;;;27.54;34.70
33185;BME280;19550;42.872;25.494;2022-07-19T08:59:46;97099.78;;;27.59;34.76
33185;BME280;19550;42.872;25.494;2022-07-19T09:02:14;97094.88;;;27.63;35.05
33185;BME280;19550;42.872;25.494;2022-07-19T09:04:41;97097.63;;;27.77;34.64
33185;BME280;19550;42.872;25.494;2022-07-19T09:07:09;97093.38;;;27.99;34.89
33185;BME280;19550;42.872;25.494;2022-07-19T09:09:36;97094.41;;;27.72;35.32
33185;BME280;19550;42.872;25.494;2022-07-19T09:12:04;97091.50;;;27.82;34.64
33185;BME280;19550;42.872;25.494;2022-07-19T09:14:33;97094.78;;;27.74;34.64
33185;BME280;19550;42.872;25.494;2022-07-19T09:17:02;97102.75;;;28.00;35.07
33185;BME280;19550;42.872;25.494;2022-07-19T09:19:32;97093.84;;;27.94;34.40
33185;BME280;19550;42.872;25.494;2022-07-19T09:22:01;97086.81;;;28.06;34.32
33185;BME280;19550;42.872;25.494;2022-07-19T09:24:30;97085.38;;;27.80;34.21
33185;BME280;19550;42.872;25.494;2022-07-19T09:27:02;97091.41;;;27.93;34.84
33185;BME280;19550;42.872;25.494;2022-07-19T09:29:32;97094.66;;;27.95;34.15
33185;BME280;19550;42.872;25.494;2022-07-19T09:32:05;97090.88;;;28.16;34.93
33185;BME280;19550;42.872;25.494;2022-07-19T09:34:35;97098.72;;;27.97;34.53
33185;BME280;19550;42.872;25.494;2022-07-19T09:37:14;97102.00;;;27.92;34.55
33185;BME280;19550;42.872;25.494;2022-07-19T09:39:42;97099.53;;;27.94;34.38
33185;BME280;19550;42.872;25.494;2022-07-19T09:42:12;97097.31;;;28.23;34.72
33185;BME280;19550;42.872;25.494;2022-07-19T09:44:39;97097.97;;;28.45;34.82
33185;BME280;19550;42.872;25.494;2022-07-19T09:47:07;97097.28;;;28.71;34.52
33185;BME280;19550;42.872;25.494;2022-07-19T09:49:35;97094.66;;;28.46;34.20
33185;BME280;19550;42.872;25.494;2022-07-19T09:52:03;97092.91;;;28.60;34.75
33185;BME280;19550;42.872;25.494;2022-07-19T09:54:30;97094.00;;;28.73;34.71
33185;BME280;19550;42.872;25.494;2022-07-19T09:56:59;97100.41;;;28.43;34.04
33185;BME280;19550;42.872;25.494;2022-07-19T09:59:26;97090.25;;;28.83;34.92
33185;BME280;19550;42.872;25.494;2022-07-19T10:01:56;97083.69;;;28.86;33.88
33185;BME280;19550;42.872;25.494;2022-07-19T10:04:24;97091.59;;;28.68;34.22
33185;BME280;19550;42.872;25.494;2022-07-19T10:06:53;97090.06;;;28.60;33.97
33185;BME280;19550;42.872;25.494;2022-07-19T10:09:22;97082.94;;;28.82;34.02
33185;BME280;19550;42.872;25.494;2022-07-19T10:11:51;97071.91;;;28.84;34.27
33185;BME280;19550;42.872;25.494;2022-07-19T10:14:18;97068.91;;;28.95;34.42
33185;BME280;19550;42.872;25.494;2022-07-19T10:16:58;97080.03;;;29.19;34.48
33185;BME280;19550;42.872;25.494;2022-07-19T10:19:33;97082.94;;;29.16;33.95
33185;BME280;19550;42.872;25.494;2022-07-19T10:22:03;97082.00;;;29.26;33.39
33185;BME280;19550;42.872;25.494;2022-07-19T10:24:48;97073.09;;;29.20;34.05
33185;BME280;19550;42.872;25.494;2022-07-19T10:27:17;97066.66;;;29.47;34.13
33185;BME280;19550;42.872;25.494;2022-07-19T10:29:45;97060.50;;;29.48;34.22
33185;BME280;19550;42.872;25.494;2022-07-19T10:32:13;97063.78;;;29.47;33.87
33185;BME280;19550;42.872;25.494;2022-07-19T10:34:41;97062.16;;;29.76;34.26
33185;BME280;19550;42.872;25.494;2022-07-19T10:37:13;97058.06;;;29.16;33.38
33185;BME280;19550;42.872;25.494;2022-07-19T10:39:40;97055.38;;;29.36;34.09
33185;BME280;19550;42.872;25.494;2022-07-19T10:42:18;97046.53;;;29.84;33.60
33185;BME280;19550;42.872;25.494;2022-07-19T10:45:10;97040.81;;;29.84;33.40
33185;BME280;19550;42.872;25.494;2022-07-19T10:48:11;97024.75;;;29.94;33.48
33185;BME280;19550;42.872;25.494;2022-07-19T10:50:55;97040.44;;;29.52;33.92
33185;BME280;19550;42.872;25.494;2022-07-19T10:53:55;97040.03;;;29.53;34.30
33185;BME280;19550;42.872;25.494;2022-07-19T10:56:25;97034.88;;;29.72;33.43
33185;BME280;19550;42.872;25.494;2022-07-19T10:58:54;97042.38;;;29.89;33.19
33185;BME280;19550;42.872;25.494;2022-07-19T11:01:22;97039.88;;;29.91;33.21
33185;BME280;19550;42.872;25.494;2022-07-19T11:03:51;97027.31;;;29.85;33.39
33185;BME280;19550;42.872;25.494;2022-07-19T11:06:21;97037.09;;;30.37;33.57
33185;BME280;19550;42.872;25.494;2022-07-19T11:08:51;97027.31;;;30.35;32.64
33185;BME280;19550;42.872;25.494;2022-07-19T11:11:20;97016.16;;;30.40;32.88
33185;BME280;19550;42.872;25.494;2022-07-19T11:13:49;97010.81;;;30.86;32.51
33185;BME280;19550;42.872;25.494;2022-07-19T11:16:16;97020.50;;;30.72;32.27
33185;BME280;19550;42.872;25.494;2022-07-19T11:18:44;97010.41;;;30.87;31.91
33185;BME280;19550;42.872;25.494;2022-07-19T11:21:12;97011.91;;;30.72;32.65
33185;BME280;19550;42.872;25.494;2022-07-19T11:23:40;97019.41;;;29.96;33.25
33185;BME280;19550;42.872;25.494;2022-07-19T11:26:09;97015.31;;;29.70;33.75
33185;BME280;19550;42.872;25.494;2022-07-19T11:28:38;97009.22;;;30.18;32.95
33185;BME280;19550;42.872;25.494;2022-07-19T11:31:13;97007.66;;;30.37;32.96
33185;BME280;19550;42.872;25.494;2022-07-19T11:33:41;97015.59;;;30.72;31.51
33185;BME280;19550;42.872;25.494;2022-07-19T11:36:09;97007.81;;;30.93;31.62
33185;BME280;19550;42.872;25.494;2022-07-19T11:38:38;96995.91;;;30.74;30.62
33185;BME280;19550;42.872;25.494;2022-07-19T11:41:12;96990.63;;;30.93;31.88
33185;BME280;19550;42.872;25.494;2022-07-19T11:43:41;96997.25;;;30.90;31.34
33185;BME280;19550;42.872;25.494;2022-07-19T11:46:08;96997.09;;;31.36;30.88
33185;BME280;19550;42.872;25.494;2022-07-19T11:48:35;96989.66;;;31.39;30.44
33185;BME280;19550;42.872;25.494;2022-07-19T11:51:07;96990.19;;;31.34;30.12
33185;BME280;19550;42.872;25.494;2022-07-19T11:53:36;96987.56;;;31.59;30.21
33185;BME280;19550;42.872;25.494;2022-07-19T11:56:05;96982.56;;;31.27;30.00
33185;BME280;19550;42.872;25.494;2022-07-19T11:58:33;96981.59;;;31.34;30.77
33185;BME280;19550;42.872;25.494;2022-07-19T12:01:05;96988.88;;;31.18;30.54
33185;BME280;19550;42.872;25.494;2022-07-19T12:03:32;96980.06;;;31.29;30.67
33185;BME280;19550;42.872;25.494;2022-07-19T12:06:01;96983.66;;;30.74;31.07
33185;BME280;19550;42.872;25.494;2022-07-19T12:08:37;96976.38;;;30.50;30.85
33185;BME280;19550;42.872;25.494;2022-07-19T12:11:19;96973.16;;;30.67;31.66
33185;BME280;19550;42.872;25.494;2022-07-19T12:13:48;96973.47;;;31.12;30.76
33185;BME280;19550;42.872;25.494;2022-07-19T12:16:18;96978.31;;;31.51;29.70
33185;BME280;19550;42.872;25.494;2022-07-19T12:18:48;96966.63;;;31.62;29.71
33185;BME280;19550;42.872;25.494;2022-07-19T12:21:23;96954.75;;;31.96;30.34
33185;BME280;19550;42.872;25.494;2022-07-19T12:24:11;96963.88;;;32.07;29.36
33185;BME280;19550;42.872;25.494;2022-07-19T12:26:40;96956.06;;;31.75;30.30
33185;BME280;19550;42.872;25.494;2022-07-19T12:29:19;96961.91;;;31.36;30.75
33185;BME280;19550;42.872;25.494;2022-07-19T12:31:49;96959.22;;;31.45;30.87
33185;BME280;19550;42.872;25.494;2022-07-19T12:34:17;96960.13;;;31.78;29.88
33185;BME280;19550;42.872;25.494;2022-07-19T12:36:44;96946.84;;;31.84;29.68
33185;BME280;19550;42.872;25.494;2022-07-19T12:39:24;96944.56;;;31.43;31.05
33185;BME280;19550;42.872;25.494;2022-07-19T12:42:03;96954.47;;;31.38;31.25
33185;BME280;19550;42.872;25.494;2022-07-19T12:44:31;96953.66;;;31.90;30.21
33185;BME280;19550;42.872;25.494;2022-07-19T12:47:00;96950.00;;;31.37;30.36
33185;BME280;19550;42.872;25.494;2022-07-19T12:49:41;96943.59;;;30.74;31.47
33185;BME280;19550;42.872;25.494;2022-07-19T12:52:08;96944.09;;;30.69;33.18
33185;BME280;19550;42.872;25.494;2022-07-19T12:54:36;96936.22;;;31.48;30.92
33185;BME280;19550;42.872;25.494;2022-07-19T12:57:03;96933.28;;;32.33;30.16